Latest Weather Observations for Croker Island Airport

IDD60801

Issued at 10:35 am CST Wednesday 17 September 2014 (issued every 30 minutes, with the page automatically refreshed every 10 minutes)

About weather observations | Map of weather stations | Latest weather observations for NT | Other Formats
Station Details ID: 014308 Name: CROKER ISLAND AIRPORT Lat: -11.16 Lon: 132.48 Height: 9.2 m
Data from the previous 72 hours. | See also: Recent months for locations in Northern Territory
Date/Time
CST
Temp
°C
App
Temp
°C
Dew
Point
Rel
Hum
%
Delta-T
°C
Wind Press
QNH
hPa
Press
MSL
hPa
Rain
since 9 am
mm
Dir
 
Spd
km/h
Gust
km/h
Spd
kts
Gust
kts
17/10:30am 30.6 32.2 20.8 56 6.5 E 13 20 7 11 1014.7 1014.6 -
17/10:00am 30.4 33.5 21.5 59 6.0 E 7 15 4 8 1014.7 1014.6 -
17/09:30am 29.0 31.2 20.4 59 5.7 E 9 20 5 11 1014.8 1014.7 -
17/09:00am 28.4 31.3 21.7 67 4.5 E 9 19 5 10 1014.5 1014.4 -
17/08:30am 26.4 29.4 22.0 77 2.9 E 9 15 5 8 1014.2 1014.1 -
17/08:00am 25.9 31.3 25.2 96 0.5 E 6 7 3 4 1013.8 1013.7 -
17/07:30am 23.9 29.3 23.9 100 0.0 E 2 4 1 2 1013.4 1013.3 -
17/07:00am 22.3 26.4 22.3 100 0.0 E 4 4 2 2 1013.0 1012.9 -
17/06:30am 21.6 26.1 21.6 100 0.0 CALM 0 4 0 2 1012.6 1012.5 -
17/06:00am 21.4 25.4 21.4 100 0.0 E 2 2 1 1 1012.3 1012.2 -
17/05:30am 22.0 26.0 22.0 100 0.0 E 4 6 2 3 1011.9 1011.8 -
17/05:00am 22.0 26.7 22.0 100 0.0 CALM 0 0 0 0 1011.8 1011.7 -
17/04:30am 22.2 25.9 22.2 100 0.0 E 6 6 3 3 1011.7 1011.6 -
17/04:00am 21.7 25.3 21.2 97 0.3 E 4 4 2 2 1011.6 1011.5 -
17/03:30am 21.8 25.2 21.0 95 0.5 E 4 4 2 2 1011.5 1011.4 -
17/03:00am 22.3 26.0 21.5 95 0.5 E 4 6 2 3 1011.7 1011.6 -
17/02:30am 22.9 26.4 21.9 94 0.7 E 6 6 3 3 1011.8 1011.7 -
17/02:00am 22.9 26.6 21.5 92 0.9 E 4 6 2 3 1012.2 1012.1 -
17/01:30am 23.4 26.9 21.8 91 1.1 ENE 6 6 3 3 1012.2 1012.1 -
17/01:00am 23.7 27.3 22.1 91 1.1 ENE 6 9 3 5 1012.6 1012.5 -
17/12:30am 23.7 27.2 21.8 89 1.3 ENE 6 7 3 4 1012.8 1012.7 -
17/12:00am 23.9 27.3 21.6 87 1.5 ENE 6 7 3 4 1013.0 1012.9 -
 
Date/Time
CST
Temp
°C
App
Temp
°C
Dew
Point
Rel
Hum
%
Delta-T
°C
Wind Press
QNH
hPa
Press
MSL
hPa
Rain
since 9 am
mm
Dir
 
Spd
km/h
Gust
km/h
Spd
kts
Gust
kts
16/11:30pm 24.1 27.4 21.8 87 1.5 ENE 7 7 4 4 1013.1 1013.0 -
16/11:00pm 24.1 27.5 21.6 86 1.7 ENE 6 9 3 5 1013.0 1012.9 -
16/10:30pm 24.1 27.4 21.4 85 1.8 ENE 6 9 3 5 1012.9 1012.8 -
16/10:00pm 24.3 27.4 21.4 84 1.9 ENE 7 9 4 5 1012.8 1012.7 -
16/09:30pm 24.5 27.6 21.4 83 2.0 ENE 7 11 4 6 1012.7 1012.6 -
16/09:00pm 24.5 27.5 21.2 82 2.2 ENE 7 9 4 5 1012.5 1012.4 -
16/08:30pm 24.6 27.6 20.9 80 2.4 ENE 6 9 3 5 1012.1 1012.0 -
16/08:00pm 24.9 27.7 20.8 78 2.7 ENE 7 13 4 7 1012.0 1011.9 -
16/07:30pm 25.2 27.8 20.5 75 3.1 ENE 7 9 4 5 1011.7 1011.6 -
16/07:00pm 25.7 27.5 20.3 72 3.5 ENE 11 13 6 7 1011.3 1011.2 -
16/06:30pm 26.4 27.8 19.5 66 4.5 ENE 11 15 6 8 1011.1 1011.0 -
16/06:00pm 27.4 28.3 19.2 61 5.3 NE 13 20 7 11 1010.8 1010.7 -
16/05:30pm 28.4 29.2 18.2 54 6.5 ENE 11 19 6 10 1010.6 1010.5 -
16/05:00pm 29.0 29.3 18.7 53 6.6 ENE 15 22 8 12 1010.4 1010.3 -
16/04:30pm 29.7 29.8 19.1 53 6.9 NE 17 24 9 13 1010.5 1010.4 -
16/04:00pm 30.0 29.7 19.1 52 7.1 NE 19 28 10 15 1010.6 1010.5 -
16/03:30pm 30.1 29.8 19.5 53 6.9 ENE 20 26 11 14 1010.8 1010.7 -
16/03:00pm 30.6 30.7 19.9 52 7.0 ENE 19 28 10 15 1011.0 1010.9 -
16/02:30pm 31.3 32.4 19.6 49 7.7 ENE 13 24 7 13 1011.1 1011.0 -
16/02:00pm 32.4 32.0 18.9 44 8.8 E 19 30 10 16 1011.5 1011.4 -
16/01:30pm 31.7 30.4 16.8 40 9.4 ENE 19 30 10 16 1011.9 1011.8 -
16/01:00pm 32.0 30.7 15.9 38 10.1 ENE 17 28 9 15 1012.2 1012.1 -
16/12:30pm 31.7 29.9 15.6 37 10.0 ENE 19 28 10 15 1012.8 1012.7 -
16/12:00pm 31.6 31.5 17.9 44 8.8 E 15 22 8 12 1013.1 1013.0 -
16/11:30am 30.7 30.3 18.1 47 8.1 E 17 26 9 14 1013.4 1013.3 -
16/11:00am 31.2 32.2 19.5 49 7.7 E 13 20 7 11 1013.8 1013.7 -
16/10:30am 30.5 30.0 19.2 51 7.4 E 20 28 11 15 1014.0 1013.9 -
16/10:00am 30.1 30.7 19.5 53 6.9 E 15 22 8 12 1014.1 1014.0 -
16/09:30am 29.2 30.5 20.1 58 6.0 ENE 13 20 7 11 1013.9 1013.8 -
16/09:00am 28.8 30.8 20.8 62 5.3 ENE 11 19 6 10 1013.9 1013.8 -
16/08:30am 27.2 30.4 21.7 72 3.7 ENE 7 15 4 8 1013.7 1013.6 -
16/08:00am 26.1 31.1 23.8 87 1.6 ENE 4 7 2 4 1013.5 1013.4 -
16/07:30am 23.9 29.3 23.9 100 0.0 ENE 2 4 1 2 1013.1 1013.0 -
16/07:00am 21.9 26.6 21.9 100 0.0 CALM 0 2 0 1 1012.8 1012.7 -
16/06:30am 21.4 25.4 21.4 100 0.0 E 2 4 1 2 1012.3 1012.2 -
16/06:00am 21.9 25.8 21.9 100 0.0 E 4 6 2 3 1012.1 1012.0 -
16/05:30am 21.7 26.3 21.7 100 0.0 CALM 0 0 0 0 1011.8 1011.7 -
16/05:00am 22.1 26.8 21.9 99 0.1 CALM 0 0 0 0 1011.6 1011.5 -
16/04:30am 21.9 26.3 21.4 97 0.3 CALM 0 0 0 0 1011.3 1011.2 -
16/04:00am 22.3 26.5 21.8 97 0.3 ENE 2 4 1 2 1011.1 1011.0 -
16/03:30am 22.8 26.8 22.0 95 0.5 ENE 4 6 2 3 1011.1 1011.0 -
16/03:00am 22.9 26.8 21.9 94 0.7 ENE 4 6 2 3 1011.2 1011.1 -
16/02:30am 23.5 27.4 22.5 94 0.7 ENE 6 7 3 4 1011.4 1011.3 -
16/02:00am 23.7 27.6 22.5 93 0.8 ENE 6 7 3 4 1011.7 1011.6 -
16/01:30am 23.7 27.3 22.1 91 1.1 ENE 6 7 3 4 1011.9 1011.8 -
16/01:00am 23.8 27.3 22.2 91 1.1 ENE 7 9 4 5 1012.0 1011.9 -
16/12:30am 23.9 27.6 22.3 91 1.1 ENE 6 9 3 5 1012.2 1012.1 -
16/12:00am 24.0 27.6 22.4 91 1.1 ENE 7 9 4 5 1012.3 1012.2 -
 
Date/Time
CST
Temp
°C
App
Temp
°C
Dew
Point
Rel
Hum
%
Delta-T
°C
Wind Press
QNH
hPa
Press
MSL
hPa
Rain
since 9 am
mm
Dir
 
Spd
km/h
Gust
km/h
Spd
kts
Gust
kts
15/11:30pm 24.0 27.6 22.3 90 1.1 ENE 7 9 4 5 1012.3 1012.2 -
15/11:00pm 24.1 27.5 22.0 88 1.4 ENE 7 11 4 6 1012.3 1012.2 -
15/10:30pm 24.1 27.5 21.6 86 1.7 ENE 6 7 3 4 1012.3 1012.2 -
15/10:00pm 24.5 27.8 21.8 85 1.8 ENE 7 9 4 5 1012.2 1012.1 -
15/09:30pm 24.6 28.0 21.7 84 1.9 ENE 6 9 3 5 1012.0 1011.9 -
15/09:00pm 24.8 28.0 21.7 83 2.1 ENE 7 13 4 7 1011.9 1011.8 -
15/08:30pm 25.0 27.9 21.7 82 2.2 ENE 9 13 5 7 1011.7 1011.6 -
15/08:00pm 25.2 28.0 21.5 80 2.5 ENE 9 11 5 6 1011.5 1011.4 -
15/07:30pm 25.4 28.2 21.5 79 2.6 ENE 9 13 5 7 1011.3 1011.2 -
15/07:00pm 25.8 28.6 21.5 77 2.9 ENE 9 13 5 7 1011.0 1010.9 -
15/06:30pm 26.3 28.2 21.3 74 3.3 ENE 13 19 7 10 1010.5 1010.4 -
15/06:00pm 27.2 29.0 21.2 69 4.0 E 13 19 7 10 1010.3 1010.2 -
15/05:30pm 28.0 28.9 20.8 65 4.8 E 17 24 9 13 1010.2 1010.1 -
15/05:00pm 28.7 29.9 21.5 65 4.8 E 17 22 9 12 1010.2 1010.1 -
15/04:30pm 29.1 29.6 21.1 62 5.3 E 20 24 11 13 1010.2 1010.1 -
15/04:00pm 29.6 29.5 20.7 58 5.9 E 22 28 12 15 1010.2 1010.1 -
15/03:30pm 30.0 30.1 20.0 55 6.6 E 19 26 10 14 1010.4 1010.3 -
15/03:00pm 30.7 31.6 20.0 52 7.1 ENE 15 28 8 15 1010.8 1010.7 -
15/02:30pm 30.7 30.3 19.4 51 7.4 ENE 20 30 11 16 1011.1 1011.0 -
15/02:00pm 31.3 31.7 19.9 50 7.5 E 17 28 9 15 1011.5 1011.4 -
15/01:30pm 31.3 32.1 20.6 53 7.1 E 17 26 9 14 1012.0 1011.9 -
15/01:00pm 30.6 30.7 19.9 52 7.0 E 19 35 10 19 1012.4 1012.3 -
15/12:30pm 30.0 30.3 20.3 56 6.4 E 19 33 10 18 1012.8 1012.7 -
15/12:00pm 30.5 31.0 20.1 53 6.9 E 17 30 9 16 1013.3 1013.2 -
15/11:30am 30.3 30.2 20.0 54 6.8 E 20 30 11 16 1013.5 1013.4 -
15/11:00am 30.2 31.0 20.7 56 6.3 E 17 26 9 14 1013.9 1013.8 -
15/10:30am 29.9 30.9 21.0 59 5.9 E 17 28 9 15 1014.0 1013.9 -
15/10:00am 29.4 30.5 20.5 58 5.9 ENE 15 28 8 15 1014.0 1013.9 -
15/09:30am 28.3 28.8 20.8 63 5.0 ENE 19 26 10 14 1014.1 1014.0 -
15/09:00am 27.9 28.9 21.0 66 4.6 ENE 17 28 9 15 1013.9 1013.8 -
15/08:30am 27.4 29.0 21.4 70 4.0 E 15 20 8 11 1013.6 1013.5 -
15/08:00am 26.1 29.1 22.6 81 2.4 E 11 20 6 11 1013.2 1013.1 -
15/07:30am 24.9 29.3 22.8 88 1.4 E 4 7 2 4 1013.0 1012.9 -
15/07:00am 24.3 28.1 22.4 89 1.3 E 6 7 3 4 1012.5 1012.4 -
15/06:30am 24.2 27.3 22.1 88 1.4 E 9 11 5 6 1012.2 1012.1 -
15/06:00am 24.3 28.0 22.6 90 1.1 ENE 7 9 4 5 1011.9 1011.8 -
15/05:30am 24.3 27.9 22.4 89 1.3 ENE 7 11 4 6 1011.5 1011.4 -
15/05:00am 24.5 27.8 22.6 89 1.3 ENE 9 11 5 6 1011.2 1011.1 -
15/04:30am 24.6 27.9 22.5 88 1.4 ENE 9 13 5 7 1011.0 1010.9 -
15/04:00am 24.5 27.4 22.4 88 1.4 ENE 11 19 6 10 1010.9 1010.8 -
15/03:30am 24.6 27.6 22.7 89 1.3 ENE 11 17 6 9 1011.0 1010.9 -
15/03:00am 24.3 27.9 23.1 93 0.8 ENE 9 17 5 9 1011.1 1011.0 -
15/02:30am 24.0 27.9 23.0 94 0.7 ENE 7 11 4 6 1011.3 1011.2 -
15/02:00am 24.0 27.5 22.8 93 0.8 ENE 9 13 5 7 1011.3 1011.2 -
15/01:30am 24.1 27.9 22.7 92 0.9 ENE 7 9 4 5 1011.6 1011.5 -
15/01:00am 24.2 27.9 22.6 91 1.1 ENE 7 9 4 5 1012.0 1011.9 -
15/12:30am 24.2 27.9 22.5 90 1.1 ENE 7 11 4 6 1012.2 1012.1 -
15/12:00am 24.2 27.4 22.3 89 1.3 ENE 9 11 5 6 1012.3 1012.2 -
 
Date/Time
CST
Temp
°C
App
Temp
°C
Dew
Point
Rel
Hum
%
Delta-T
°C
Wind Press
QNH
hPa
Press
MSL
hPa
Rain
since 9 am
mm
Dir
 
Spd
km/h
Gust
km/h
Spd
kts
Gust
kts
14/11:30pm 24.2 27.7 22.1 88 1.4 ENE 7 11 4 6 1012.3 1012.2 -
14/11:00pm 23.8 26.7 21.1 85 1.8 ENE 7 9 4 5 1012.1 1012.0 -
14/10:30pm 24.7 27.9 21.6 83 2.1 NE 7 11 4 6 1012.0 1011.9 -
14/10:00pm 25.0 27.6 21.9 83 2.1 NE 11 17 6 9 1011.6 1011.5 -
14/09:30pm 24.8 28.0 21.7 83 2.1 NE 7 15 4 8 1011.6 1011.5 -
14/09:00pm 24.6 27.8 21.3 82 2.2 ENE 6 11 3 6 1011.6 1011.5 -
14/08:30pm 24.4 28.0 20.5 79 2.5 ENE 2 6 1 3 1011.5 1011.4 -
14/08:00pm 24.8 27.6 20.5 77 2.8 ENE 6 7 3 4 1011.2 1011.1 -
14/07:30pm 25.2 26.8 20.0 73 3.4 ENE 11 19 6 10 1010.8 1010.7 -
14/07:00pm 25.7 26.1 19.8 70 3.8 ENE 17 24 9 13 1010.5 1010.4 -
14/06:30pm 26.3 26.3 19.7 67 4.3 NE 19 24 10 13 1010.3 1010.2 -
14/06:00pm 27.2 26.3 18.2 58 5.7 ENE 20 32 11 17 1010.2 1010.1 -
14/05:30pm 28.3 28.2 19.5 59 5.7 NE 19 26 10 14 1010.0 1009.9 -
14/05:00pm 29.4 28.5 18.2 51 7.2 ENE 20 32 11 17 1009.9 1009.8 -
14/04:30pm 29.7 28.1 17.5 48 7.7 ENE 22 32 12 17 1009.8 1009.7 -
14/04:00pm 30.0 29.0 18.8 51 7.2 ENE 22 32 12 17 1009.8 1009.7 -
14/03:30pm 30.4 29.1 19.1 50 7.4 ENE 24 35 13 19 1010.1 1010.0 -
14/03:00pm 30.4 29.5 19.1 50 7.4 E 22 33 12 18 1010.5 1010.4 -
14/02:30pm 31.0 30.9 20.0 52 7.3 E 20 33 11 18 1010.8 1010.7 -
14/02:00pm 31.3 31.4 20.3 52 7.3 ENE 20 28 11 15 1011.0 1010.9 -
14/01:30pm 30.3 30.3 20.2 54 6.7 ESE 20 30 11 16 1011.4 1011.3 -
14/01:00pm 30.6 30.8 20.5 54 6.7 ESE 20 32 11 17 1012.0 1011.9 -
14/12:30pm 30.1 30.3 20.6 56 6.3 ESE 20 30 11 16 1012.5 1012.4 -
14/12:00pm 30.1 31.0 21.5 60 5.8 ESE 19 28 10 15 1012.9 1012.8 -
14/11:30am 29.6 30.2 21.0 60 5.7 ESE 19 30 10 16 1013.4 1013.3 -
14/11:00am 29.6 30.0 21.0 60 5.7 E 20 30 11 16 1013.6 1013.5 -

Other Formats:

Comma delimited format used in spreadsheet applications
http://www.bom.gov.au/fwo/IDD60801/IDD60801.94108.axf

JavaScript Object Notation format (JSON) in row-major order
http://www.bom.gov.au/fwo/IDD60801/IDD60801.94108.json